Have a Safe July 4th! 

Flight Track Log - Related Links

Times and Time Zones

All times are in EDT time to prevent confusion due to time zone crossing. See the AWE1730 flight status page for this flight to view local times or setup timezone preferences in your user account.

Time Position Orientation Groundspeed Altitude Reporting Facility
EDT Latitude Longitude Course Direction KTS MPH feet Rate Location/Type
Mon 11:45:18 AM 35.1871 -80.9290 196° South  Level FlightAware Approximate
Mon 11:46:01 AM 35.1778 -80.9322 164° South 150 173 2,800  Level FAA TRACON SMA TRACON (SMA)
Mon 11:46:41 AM 35.1436 -80.9200 112° Southeast 190 219 4,400 2,354 Climbing FAA TRACON SMA TRACON (SMA)
Mon 11:47:20 AM 35.1311 -80.8828 109° East 220 253 5,900 2,354 Climbing FAA TRACON SMA TRACON (SMA)
Mon 11:48:00 AM 35.1144 -80.8247 108° East 265 305 7,500 1,650 Climbing FAA TRACON SMA TRACON (SMA)
Mon 11:48:40 AM 35.0958 -80.7547 62° Northeast 293 337 8,100 1,725 Climbing FAA TRACON SMA TRACON (SMA)
Mon 11:49:20 AM 35.1189 -80.7014 55° Northeast 291 335 9,800 2,458 Climbing FAA TRACON SMA TRACON (SMA)
Mon 11:50:03 AM 35.1511 -80.6456 55° Northeast 294 338 11,500 2,222 Climbing FAA TRACON SMA TRACON (SMA)
Mon 11:50:41 AM 35.1850 -80.5864 55° Northeast 342 394 12,800 1,923 Climbing FAA TRACON SMA TRACON (SMA)
Mon 11:51:21 AM 35.2200 -80.5253 55° Northeast 354 407 14,000 1,275 Climbing FAA TRACON SMA TRACON (SMA)
Mon 11:52:01 AM 35.2647 -80.4472 54° Northeast 357 411 14,500 1,575 Climbing FAA TRACON SMA TRACON (SMA)
Mon 11:52:41 AM 35.3019 -80.3833 55° Northeast 374 430 16,100 2,550 Climbing FAA TRACON SMA TRACON (SMA)
Mon 11:53:21 AM 35.3447 -80.3081 55° Northeast 385 443 17,900 2,051 Climbing FAA TRACON SMA TRACON (SMA)
Mon 11:54:00 AM 35.3839 -80.2392 56° Northeast 395 455 18,800 1,899 Climbing FAA TRACON SMA TRACON (SMA)
Mon 11:54:40 AM 35.4286 -80.1586 71° East 408 470 20,400 2,475 Climbing FAA TRACON SMA TRACON (SMA)
Mon 11:55:20 AM 35.4547 -80.0658 73° East 413 475 22,100 2,175 Climbing FAA TRACON SMA TRACON (SMA)
Mon 11:56:00 AM 35.4758 -79.9808 73° East 422 486 23,300 1,800 Climbing FAA TRACON SMA TRACON (SMA)
Mon 11:56:40 AM 35.5003 -79.8831 71° East 430 495 24,500 1,037 Climbing FAA TRACON SMA TRACON (SMA)
Mon 11:57:21 AM 35.5044 -79.8678 72° East 432 497 24,700 1,899 Climbing FAA TRACON SMA TRACON (SMA)
Mon 11:57:59 AM 35.5494 -79.6919 71° East 435 501 27,000 1,438 Climbing Washington Center
Mon 11:58:57 AM 35.5878 -79.5508 67° East 441 507 27,000  Level Washington Center
Mon 11:59:58 AM 35.6314 -79.4253 42° Northeast 436 502 27,000  Level Washington Center
Mon 12:00:58 PM 35.7289 -79.3175 41° Northeast 425 489 27,000  Level Washington Center
Mon 12:01:57 PM 35.8217 -79.2167 41° Northeast 431 496 27,000  Level Washington Center
Mon 12:02:57 PM 35.9144 -79.1158 41° Northeast 431 496 27,000  Level Washington Center
Mon 12:03:58 PM 35.9961 -79.0272 42° Northeast 436 502 27,000  Level Washington Center
Mon 12:04:58 PM 36.0867 -78.9256 41° Northeast 436 502 27,000  Level Washington Center
Mon 12:05:59 PM 36.1792 -78.8242 42° Northeast 436 502 27,000  Level Washington Center
Mon 12:06:57 PM 36.2694 -78.7247 42° Northeast 436 502 27,000  Level Washington Center
Mon 12:07:57 PM 36.3619 -78.6200 41° Northeast 436 502 27,000  Level Washington Center
Mon 12:08:59 PM 36.4628 -78.5103 42° Northeast 436 502 27,000  Level Washington Center
Mon 12:09:59 PM 36.5528 -78.4078 42° Northeast 431 496 27,000  Level Washington Center
Mon 12:10:59 PM 36.6428 -78.3075 43° Northeast 436 502 27,000  Level Washington Center
Mon 12:11:57 PM 36.7306 -78.2042 42° Northeast 431 496 27,000  Level Washington Center
Mon 12:12:59 PM 36.8225 -78.1008 42° Northeast 431 496 27,000  Level Washington Center
Mon 12:13:59 PM 36.9122 -78.0000 42° Northeast 431 496 27,000  Level Washington Center
Mon 12:14:58 PM 37.0017 -77.8986 43° Northeast 431 496 27,000  Level Washington Center
Mon 12:15:58 PM 37.0914 -77.7947 43° Northeast 431 496 27,000  Level Washington Center
Mon 12:16:57 PM 37.1722 -77.7006 41° Northeast 431 496 27,000  Level Washington Center
Mon 12:17:57 PM 37.2658 -77.5986 22° Northeast 436 502 27,000 -650 Level Washington Center
Mon 12:18:57 PM 37.3836 -77.5392 18° North 425 489 25,700 -1,636 Descending Washington Center
Mon 12:19:58 PM 37.4950 -77.4922 18° North 409 471 23,700 -1,850 Descending Washington Center
Mon 12:20:57 PM 37.6019 -77.4475 18° North 409 471 22,000 -1,916 Descending Washington Center
Mon 12:21:57 PM 37.7050 -77.4056 18° North 404 465 19,900 -1,950 Descending Washington Center
Mon 12:22:57 PM 37.8056 -77.3633 18° North 392 451 18,100 -1,537 Descending Washington Center
Mon 12:23:58 PM 37.9022 -77.3233 19° North 375 432 16,800 -1,537 Descending Washington Center
Mon 12:24:58 PM 37.9986 -77.2808 18° North 367 422 15,000 -1,636 Descending Washington Center
Mon 12:25:59 PM 38.0825 -77.2458 18° North 361 415 13,500 -1,587 Descending Washington Center
Mon 12:26:59 PM 38.1728 -77.2081 18° North 351 404 11,800 -1,650 Descending Washington Center
Mon 12:27:59 PM 38.2692 -77.1681 11° North 336 387 10,200 -915 Descending Washington Center
Mon 12:28:57 PM 38.3550 -77.1458 10° North 331 381 10,000 -102 Descending Washington Center
Mon 12:29:57 PM 38.4386 -77.1264 10° North 325 374 10,000  Level Washington Center
Mon 12:30:59 PM 38.5286 -77.1069 North 307 353 10,000  Level Washington Center
Mon 12:31:59 PM 38.6100 -77.0900 11° North 297 342 10,000 -458 Level Washington Center
Mon 12:32:57 PM 38.6917 -77.0706 356° North 297 342 9,100 -1,271 Descending Washington Center
Mon 12:33:57 PM 38.7708 -77.0775 332° Northwest 289 333 7,500 -1,140 Descending Washington Center
Mon 12:34:58 PM 38.8350 -77.1214 312° West 266 306 6,800 -947 Descending Washington Center
Mon 12:35:51 PM 38.8667 -77.1667 314° West 223 257 5,700 -956 Descending Potomac TRACON
Mon 12:36:51 PM 38.9167 -77.2333 322° Northwest 208 239 5,000 -400 Descending Potomac TRACON
Mon 12:37:51 PM 38.9500 -77.2667 333° Northwest 186 214 4,900 -52 Descending Potomac TRACON
Mon 12:38:46 PM 39.0000 -77.3000 49° Northeast 196 226 4,900 -313 Level Potomac TRACON
Mon 12:39:46 PM 39.0333 -77.2500 123° Southeast 184 212 4,300 -900 Descending Potomac TRACON
Mon 12:40:46 PM 39.0167 -77.2167 131° Southeast 170 196 3,100 -800 Descending Potomac TRACON
Mon 12:41:46 PM 38.9833 -77.1667 131° Southeast 175 201 2,700 -400 Descending Potomac TRACON

Login

Don't have an account? Register now (free) for customized features, flight alerts, and more!